< < Back
Terminal Aerodrome Forecast


Current Version              Previous Versions:   1  2  3  4  5  6  7  8  9  

Terminal Aerodrome Forecast

134
FTUS42 KFFC 232300
TAFPDK
TAF
KPDK 232331Z 2400/2424 32008KT P6SM SCT040 BKN080
     FM240200 25004KT P6SM SCT035 SCT080
     FM240800 23005KT P6SM SCT025
     FM241400 26007KT P6SM BKN025
     FM241600 28008G16KT 6SM -SHRA BKN035 PROB30 2416/2421 5SM TSRA
      BR BKN025CB
     FM242100 30007KT P6SM BKN035=



Latest METAR

246
SAUS70 KWBC 240000 RRQ
MTRPDK
METAR KPDK 232353Z 03003KT 7SM VCTS FEW120 27/22 A3001 RMK AO2 TSB50
SLP143 T02670217 10311 20267 55002


USA.gov is the U.S. government's official web portal to all federal, state and local government web resources and services.